createdAt,value
2018-05-14T00:00:08.254Z,15.93
2018-05-14T00:01:12.704Z,15.87
2018-05-14T00:02:16.942Z,15.82
2018-05-14T00:03:21.071Z,15.77
2018-05-14T00:04:26.002Z,15.75
2018-05-14T00:05:30.143Z,15.77
2018-05-14T00:06:34.638Z,15.80
2018-05-14T00:07:39.682Z,15.80
2018-05-14T00:08:43.818Z,15.81
2018-05-14T00:09:47.953Z,15.75
2018-05-14T00:10:52.098Z,15.76
2018-05-14T00:11:56.303Z,15.76
2018-05-14T00:13:00.766Z,15.77
2018-05-14T00:14:04.896Z,15.75
2018-05-14T00:15:09.248Z,15.78
2018-05-14T00:16:13.446Z,15.80
2018-05-14T00:17:17.567Z,15.79
2018-05-14T00:18:21.756Z,15.78
2018-05-14T00:19:26.231Z,15.79
2018-05-14T00:20:30.419Z,15.82
2018-05-14T00:21:35.080Z,15.79
2018-05-14T00:22:39.176Z,15.82
2018-05-14T00:23:44.321Z,15.80
2018-05-14T00:24:48.452Z,15.79
2018-05-14T00:25:53.657Z,15.75
2018-05-14T00:26:57.794Z,15.71
2018-05-14T00:28:02.072Z,15.69
2018-05-14T00:29:06.185Z,15.63
2018-05-14T00:30:12.572Z,15.58
2018-05-14T00:31:16.686Z,15.58
2018-05-14T00:32:20.791Z,15.56
2018-05-14T00:33:25.058Z,15.55
2018-05-14T00:34:29.237Z,15.55
2018-05-14T00:35:33.456Z,15.55
2018-05-14T00:36:37.575Z,15.49
2018-05-14T00:37:41.697Z,15.54
2018-05-14T00:38:46.228Z,15.50
2018-05-14T00:39:50.362Z,15.50
2018-05-14T00:40:54.486Z,15.49
2018-05-14T00:41:58.710Z,15.46
2018-05-14T00:43:02.837Z,15.45
2018-05-14T00:44:06.948Z,15.44
2018-05-14T00:45:13.664Z,15.48
2018-05-14T00:46:18.138Z,15.43
2018-05-14T00:47:22.283Z,15.43
2018-05-14T00:48:26.399Z,15.38
2018-05-14T00:49:30.667Z,15.39
2018-05-14T00:50:34.760Z,15.36
2018-05-14T00:51:39.408Z,15.36
2018-05-14T00:52:44.392Z,15.33
2018-05-14T00:53:48.622Z,15.35
2018-05-14T00:55:01.521Z,15.35
2018-05-14T00:56:05.828Z,15.28
2018-05-14T00:57:09.960Z,15.24
2018-05-14T00:58:14.538Z,15.25
2018-05-14T00:59:18.664Z,15.24
2018-05-14T01:00:23.288Z,15.24
2018-05-14T01:01:27.420Z,15.21
2018-05-14T01:02:31.532Z,15.13
2018-05-14T01:03:35.654Z,15.05
2018-05-14T01:04:40.477Z,15.03
2018-05-14T01:05:44.691Z,15.06
2018-05-14T01:06:48.856Z,15.10
2018-05-14T01:07:52.998Z,15.10
2018-05-14T01:08:57.150Z,15.07
2018-05-14T01:10:01.262Z,15.09
2018-05-14T01:11:05.730Z,15.10
2018-05-14T01:12:09.823Z,15.10
2018-05-14T01:13:14.044Z,15.06
2018-05-14T01:14:18.186Z,15.07
2018-05-14T01:15:22.540Z,15.17
2018-05-14T01:16:26.732Z,15.13
2018-05-14T01:17:31.354Z,15.06
2018-05-14T01:18:36.350Z,15.08
2018-05-14T01:19:41.784Z,15.06
2018-05-14T01:20:46.328Z,15.05
2018-05-14T01:21:50.736Z,15.05
2018-05-14T01:22:55.332Z,15.05
2018-05-14T01:23:59.736Z,14.99
2018-05-14T01:25:03.962Z,14.90
2018-05-14T01:26:08.294Z,14.84
2018-05-14T01:27:12.438Z,14.81
2018-05-14T01:28:16.677Z,14.79
2018-05-14T01:29:20.817Z,14.84
2018-05-14T01:30:25.364Z,14.75
2018-05-14T01:31:30.503Z,14.77
2018-05-14T01:32:35.022Z,14.79
2018-05-14T01:33:39.166Z,14.73
2018-05-14T01:34:44.286Z,14.72
2018-05-14T01:35:48.410Z,14.70
2018-05-14T01:36:52.512Z,14.74
2018-05-14T01:37:56.760Z,14.69
2018-05-14T01:39:00.920Z,14.70
2018-05-14T01:40:05.142Z,14.69
2018-05-14T01:41:09.312Z,14.62
2018-05-14T01:42:13.428Z,14.57
2018-05-14T01:43:18.206Z,14.49
2018-05-14T01:44:22.418Z,14.44
2018-05-14T01:45:26.830Z,14.40
2018-05-14T01:46:30.971Z,14.42
2018-05-14T01:48:40.224Z,14.48
2018-05-14T01:49:45.086Z,14.47
2018-05-14T01:50:49.749Z,14.39
2018-05-14T01:51:53.864Z,14.36
2018-05-14T01:52:58.084Z,14.31
2018-05-14T01:54:02.284Z,14.30
2018-05-14T01:55:06.408Z,14.33
2018-05-14T01:56:10.908Z,14.31
2018-05-14T01:57:15.014Z,14.30
2018-05-14T01:58:19.265Z,14.25
2018-05-14T01:59:23.390Z,14.22
2018-05-14T02:00:27.942Z,14.17
2018-05-14T02:01:32.113Z,14.20
2018-05-14T02:02:36.536Z,14.18
2018-05-14T02:03:40.742Z,14.31
2018-05-14T02:04:45.594Z,14.28
2018-05-14T02:05:50.427Z,14.21
2018-05-14T02:06:54.578Z,14.15
2018-05-14T02:07:59.001Z,14.15
2018-05-14T02:09:03.308Z,14.16
2018-05-14T02:10:07.585Z,14.15
2018-05-14T02:11:11.720Z,14.15
2018-05-14T02:12:16.068Z,14.18
2018-05-14T02:13:20.268Z,14.15
2018-05-14T02:14:25.005Z,14.15
2018-05-14T02:15:29.586Z,14.15
2018-05-14T02:16:34.131Z,14.12
2018-05-14T02:17:38.731Z,14.05
2018-05-14T02:18:43.084Z,13.99
2018-05-14T02:19:47.881Z,13.98
2018-05-14T02:20:53.298Z,13.95
2018-05-14T02:21:57.426Z,13.93
2018-05-14T02:23:01.540Z,13.89
2018-05-14T02:24:05.660Z,13.88
2018-05-14T02:25:09.782Z,13.86
2018-05-14T02:26:14.002Z,13.87
2018-05-14T02:27:18.404Z,13.86
2018-05-14T02:28:22.541Z,13.85
2018-05-14T02:29:26.785Z,13.85
2018-05-14T02:30:31.425Z,13.88
2018-05-14T02:31:35.962Z,13.85
2018-05-14T02:32:40.139Z,13.91
2018-05-14T02:33:44.276Z,13.93
2018-05-14T02:34:49.362Z,13.88
2018-05-14T02:35:53.470Z,13.86
2018-05-14T02:36:57.606Z,13.85
2018-05-14T02:38:01.776Z,13.87
2018-05-14T02:39:06.681Z,13.90
2018-05-14T02:40:10.792Z,13.84
2018-05-14T02:41:14.897Z,13.84
2018-05-14T02:42:19.108Z,13.81
2018-05-14T02:43:23.216Z,13.78
2018-05-14T02:44:27.337Z,13.74
2018-05-14T02:45:32.374Z,13.69
2018-05-14T02:46:36.472Z,13.67
2018-05-14T02:47:40.708Z,13.62
2018-05-14T02:48:44.818Z,13.64
2018-05-14T02:49:49.576Z,13.68
2018-05-14T02:50:53.799Z,13.66
2018-05-14T02:51:58.249Z,13.66
2018-05-14T02:53:02.466Z,13.63
2018-05-14T02:54:06.624Z,13.60
2018-05-14T02:55:10.808Z,13.55
2018-05-14T02:56:14.941Z,13.53
2018-05-14T02:57:19.085Z,13.62
2018-05-14T02:58:23.202Z,13.63
2018-05-14T02:59:27.422Z,13.61
2018-05-14T03:00:32.288Z,13.57
2018-05-14T03:01:36.450Z,13.62
2018-05-14T03:02:41.190Z,13.61
2018-05-14T03:03:46.500Z,13.58
2018-05-14T03:04:51.530Z,13.59
2018-05-14T03:05:55.656Z,13.63
2018-05-14T03:06:59.800Z,13.56
2018-05-14T03:08:04.020Z,13.53
2018-05-14T03:09:08.170Z,13.52
2018-05-14T03:10:12.707Z,13.49
2018-05-14T03:11:16.837Z,13.44
2018-05-14T03:12:20.978Z,13.41
2018-05-14T03:13:25.115Z,13.39
2018-05-14T03:14:29.242Z,13.37
2018-05-14T03:15:33.584Z,13.34
2018-05-14T03:16:38.085Z,13.38
2018-05-14T03:17:43.086Z,13.36
2018-05-14T03:18:48.168Z,13.39
2018-05-14T03:19:52.291Z,13.49
2018-05-14T03:20:56.429Z,13.66
2018-05-14T03:22:00.570Z,13.61
2018-05-14T03:23:05.106Z,13.52
2018-05-14T03:24:09.226Z,13.51
2018-05-14T03:25:13.357Z,13.52
2018-05-14T03:26:17.616Z,13.49
2018-05-14T03:27:21.778Z,13.45
2018-05-14T03:28:25.911Z,13.38
2018-05-14T03:29:30.343Z,13.39
2018-05-14T03:30:34.790Z,13.39
2018-05-14T03:31:39.002Z,13.48
2018-05-14T03:32:43.618Z,13.48
2018-05-14T03:33:47.957Z,13.46
2018-05-14T03:34:53.004Z,13.43
2018-05-14T03:35:57.110Z,13.42
2018-05-14T03:37:01.337Z,13.39
2018-05-14T03:38:05.464Z,13.36
2018-05-14T03:39:09.673Z,13.37
2018-05-14T03:40:13.820Z,13.35
2018-05-14T03:41:18.333Z,13.38
2018-05-14T03:42:22.550Z,13.36
2018-05-14T03:43:26.678Z,13.37
2018-05-14T03:44:30.798Z,13.40
2018-05-14T03:45:35.447Z,13.43
2018-05-14T03:46:39.673Z,13.40
2018-05-14T03:47:44.927Z,13.43
2018-05-14T03:48:49.139Z,13.46
2018-05-14T03:49:54.211Z,13.49
2018-05-14T03:50:58.347Z,13.55
2018-05-14T03:52:02.480Z,13.62
2018-05-14T03:53:06.641Z,13.59
2018-05-14T03:54:10.855Z,13.59
2018-05-14T03:55:14.998Z,13.60
2018-05-14T03:56:19.132Z,13.64
2018-05-14T03:57:23.236Z,13.77
2018-05-14T03:58:36.153Z,13.88
2018-05-14T04:01:55.284Z,13.96
2018-05-14T04:03:10.260Z,13.96
2018-05-14T04:05:22.134Z,13.95
2018-05-14T04:06:34.038Z,14.01
2018-05-14T04:07:38.149Z,14.07
2018-05-14T04:08:42.381Z,14.10
2018-05-14T04:09:46.579Z,14.15
2018-05-14T04:10:50.692Z,14.19
2018-05-14T04:11:54.848Z,14.21
2018-05-14T04:12:59.296Z,14.26
2018-05-14T04:14:03.502Z,14.28
2018-05-14T04:15:07.654Z,14.35
2018-05-14T04:16:11.801Z,14.47
2018-05-14T04:17:16.074Z,14.58
2018-05-14T04:18:20.221Z,14.66
2018-05-14T04:19:24.336Z,14.74
2018-05-14T04:20:28.540Z,14.72
2018-05-14T04:21:32.665Z,14.85
2018-05-14T04:22:36.928Z,15.10
2018-05-14T04:23:41.128Z,15.12
2018-05-14T04:24:45.304Z,15.11
2018-05-14T04:25:50.572Z,15.11
2018-05-14T04:26:54.731Z,15.09
2018-05-14T04:27:58.852Z,15.11
2018-05-14T04:29:02.994Z,15.14
2018-05-14T04:30:07.365Z,15.19
2018-05-14T04:31:11.864Z,15.19
2018-05-14T04:32:16.411Z,15.18
2018-05-14T04:33:20.591Z,15.33
2018-05-14T04:34:24.702Z,15.43
2018-05-14T04:35:28.990Z,15.46
2018-05-14T04:36:33.095Z,15.39
2018-05-14T04:37:37.202Z,15.57
2018-05-14T04:38:41.626Z,15.66
2018-05-14T04:39:46.034Z,15.64
2018-05-14T04:40:50.758Z,15.63
2018-05-14T04:41:54.908Z,15.67
2018-05-14T04:42:59.060Z,15.81
2018-05-14T04:44:03.174Z,15.96
2018-05-14T04:45:07.750Z,16.00
2018-05-14T04:46:11.904Z,16.01
2018-05-14T04:47:16.036Z,15.98
2018-05-14T04:48:20.242Z,16.11
2018-05-14T04:49:24.647Z,16.18
2018-05-14T04:50:28.834Z,16.14
2018-05-14T04:51:32.950Z,16.09
2018-05-14T04:52:37.096Z,16.18
2018-05-14T04:53:41.202Z,16.31
2018-05-14T04:54:45.874Z,16.40
2018-05-14T04:55:51.296Z,16.43
2018-05-14T04:56:55.508Z,16.42
2018-05-14T04:57:59.688Z,16.56
2018-05-14T04:59:03.868Z,16.67
2018-05-14T05:00:08.181Z,16.79
2018-05-14T05:01:12.303Z,16.89
2018-05-14T05:02:16.750Z,17.04
2018-05-14T05:03:20.962Z,17.06
2018-05-14T05:04:25.098Z,17.08
2018-05-14T05:05:29.205Z,17.22
2018-05-14T05:06:33.333Z,17.29
2018-05-14T05:07:37.539Z,17.45
2018-05-14T05:08:41.935Z,17.48
2018-05-14T05:09:46.857Z,17.61
2018-05-14T05:10:51.792Z,17.66
2018-05-14T05:11:55.922Z,17.66
2018-05-14T05:13:00.184Z,17.70
2018-05-14T05:14:04.287Z,17.75
2018-05-14T05:15:08.670Z,17.84
2018-05-14T05:16:12.973Z,17.79
2018-05-14T05:17:17.277Z,17.74
2018-05-14T05:18:21.689Z,17.88
2018-05-14T05:19:25.942Z,17.92
2018-05-14T05:20:30.099Z,18.00
2018-05-14T05:21:34.565Z,18.01
2018-05-14T05:22:38.771Z,18.19
2018-05-14T05:23:43.846Z,18.59
2018-05-14T05:24:47.968Z,18.58
2018-05-14T05:25:52.721Z,18.46
2018-05-14T05:26:56.869Z,18.27
2018-05-14T05:28:01.423Z,18.35
2018-05-14T05:29:05.565Z,18.37
2018-05-14T05:30:09.845Z,18.52
2018-05-14T05:31:14.349Z,18.48
2018-05-14T05:32:18.547Z,18.58
2018-05-14T05:33:22.674Z,18.63
2018-05-14T05:34:27.145Z,18.73
2018-05-14T05:35:31.264Z,18.81
2018-05-14T05:36:35.460Z,18.95
2018-05-14T05:37:39.626Z,18.90
2018-05-14T05:38:44.881Z,18.91
2018-05-14T05:39:48.989Z,18.88
2018-05-14T05:40:53.557Z,19.01
2018-05-14T05:41:57.685Z,19.20
2018-05-14T05:43:01.839Z,19.30
2018-05-14T05:44:06.056Z,19.26
2018-05-14T05:45:10.525Z,19.12
2018-05-14T05:46:15.391Z,19.18
2018-05-14T05:47:19.637Z,19.24
2018-05-14T05:48:23.775Z,19.31
2018-05-14T05:49:27.914Z,19.40
2018-05-14T05:50:32.115Z,19.50
2018-05-14T05:51:36.254Z,19.45
2018-05-14T05:52:40.713Z,19.75
2018-05-14T05:53:45.552Z,19.92
2018-05-14T05:54:49.737Z,19.95
2018-05-14T05:55:53.909Z,19.92
2018-05-14T05:56:58.038Z,20.12
2018-05-14T05:58:02.174Z,20.36
2018-05-14T05:59:06.613Z,20.33
2018-05-14T06:00:15.212Z,20.21
2018-05-14T06:01:19.386Z,20.19
2018-05-14T06:02:23.510Z,20.17
2018-05-14T06:03:27.662Z,20.23
2018-05-14T06:04:31.816Z,20.20
2018-05-14T06:05:36.004Z,20.32
2018-05-14T06:06:40.130Z,20.37
2018-05-14T06:07:44.282Z,20.52
2018-05-14T06:08:48.406Z,20.64
2018-05-14T06:09:52.608Z,20.57
2018-05-14T06:10:57.344Z,20.65
2018-05-14T06:12:01.851Z,20.91
2018-05-14T06:13:05.972Z,21.03
2018-05-14T06:14:10.134Z,21.29
2018-05-14T06:15:15.636Z,21.51
2018-05-14T06:16:19.802Z,21.89
2018-05-14T06:17:24.070Z,21.97
2018-05-14T06:18:28.507Z,21.79
2018-05-14T06:19:32.636Z,21.60
2018-05-14T06:20:36.780Z,21.39
2018-05-14T06:21:41.004Z,21.35
2018-05-14T06:22:46.991Z,21.22
2018-05-14T06:23:51.122Z,21.27
2018-05-14T06:24:56.188Z,21.33
2018-05-14T06:26:00.338Z,21.38
2018-05-14T06:27:04.498Z,21.27
2018-05-14T06:28:08.727Z,21.23
2018-05-14T06:29:12.890Z,21.30
2018-05-14T06:30:17.472Z,21.54
2018-05-14T06:31:21.938Z,21.49
2018-05-14T06:32:26.109Z,21.50
2018-05-14T06:33:30.246Z,21.87
2018-05-14T06:34:34.448Z,21.95
2018-05-14T06:35:38.687Z,22.12
2018-05-14T06:36:43.586Z,22.19
2018-05-14T06:37:47.855Z,22.22
2018-05-14T06:38:52.090Z,22.39
2018-05-14T06:39:57.250Z,22.47
2018-05-14T06:41:01.415Z,22.38
2018-05-14T06:42:05.604Z,22.21
2018-05-14T06:43:10.202Z,22.07
2018-05-14T06:44:14.532Z,21.94
2018-05-14T06:45:19.136Z,22.07
2018-05-14T06:46:23.791Z,22.00
2018-05-14T06:47:27.944Z,21.84
2018-05-14T06:48:32.058Z,22.13
2018-05-14T06:49:36.490Z,22.51
2018-05-14T06:50:40.744Z,22.34
2018-05-14T06:51:45.141Z,22.49
2018-05-14T06:52:49.300Z,22.44
2018-05-14T06:53:53.418Z,22.72
2018-05-14T06:54:57.512Z,22.83
2018-05-14T06:56:01.658Z,22.64
2018-05-14T06:57:05.901Z,22.68
2018-05-14T06:58:10.040Z,22.63
2018-05-14T06:59:14.231Z,22.92
2018-05-14T07:00:18.486Z,23.04
2018-05-14T07:01:23.004Z,23.31
2018-05-14T07:02:27.496Z,23.06
2018-05-14T07:03:31.645Z,22.81
2018-05-14T07:04:35.778Z,23.23
2018-05-14T07:05:39.921Z,23.53
2018-05-14T07:06:44.859Z,23.84
2018-05-14T07:07:49.084Z,23.62
2018-05-14T07:08:54.368Z,23.34
2018-05-14T07:09:58.524Z,23.38
2018-05-14T07:11:02.729Z,23.34
2018-05-14T07:12:06.944Z,23.26
2018-05-14T07:13:11.101Z,23.29
2018-05-14T07:14:15.216Z,23.06
2018-05-14T07:15:19.819Z,23.07
2018-05-14T07:16:23.950Z,23.09
2018-05-14T07:17:28.075Z,22.94
2018-05-14T07:18:32.275Z,23.18
2018-05-14T07:19:36.484Z,22.96
2018-05-14T07:20:40.609Z,22.77
2018-05-14T07:21:45.718Z,22.85
2018-05-14T07:22:50.425Z,23.00
2018-05-14T07:23:55.295Z,23.12
2018-05-14T07:24:59.416Z,23.24
2018-05-14T07:26:03.580Z,23.41
2018-05-14T07:27:08.102Z,23.44
2018-05-14T07:28:13.060Z,23.67
2018-05-14T07:29:17.266Z,23.70
2018-05-14T07:30:21.787Z,23.57
2018-05-14T07:31:25.932Z,23.52
2018-05-14T07:32:30.292Z,23.89
2018-05-14T07:33:35.542Z,24.10
2018-05-14T07:34:39.838Z,24.12
2018-05-14T07:35:44.764Z,23.95
2018-05-14T07:36:48.880Z,23.90
2018-05-14T07:37:53.892Z,24.17
2018-05-14T07:38:58.102Z,24.32
2018-05-14T07:40:02.640Z,24.12
2018-05-14T07:41:06.747Z,23.67
2018-05-14T07:42:10.972Z,23.85
2018-05-14T07:43:15.117Z,23.89
2018-05-14T07:44:19.299Z,23.87
2018-05-14T07:45:23.426Z,24.15
2018-05-14T07:46:27.840Z,24.55
2018-05-14T07:47:32.112Z,24.86
2018-05-14T07:48:36.258Z,24.88
2018-05-14T07:49:40.398Z,24.56
2018-05-14T07:50:44.632Z,24.40
2018-05-14T07:51:49.314Z,24.09
2018-05-14T07:52:53.752Z,24.05
2018-05-14T07:53:57.888Z,24.09
2018-05-14T07:55:02.020Z,24.45
2018-05-14T07:56:06.234Z,25.06
2018-05-14T07:57:10.404Z,25.12
2018-05-14T07:58:14.589Z,25.12
2018-05-14T07:59:19.021Z,25.05
2018-05-14T08:00:23.469Z,24.92
2018-05-14T08:01:27.675Z,24.89
2018-05-14T08:02:31.834Z,24.89
2018-05-14T08:03:35.992Z,25.10
2018-05-14T08:04:40.128Z,25.11
2018-05-14T08:05:44.602Z,25.46
2018-05-14T08:06:48.822Z,25.57
2018-05-14T08:07:52.992Z,25.52
2018-05-14T08:08:57.811Z,25.74
2018-05-14T08:10:01.953Z,25.56
2018-05-14T08:11:06.080Z,25.47
2018-05-14T08:12:10.328Z,25.40
2018-05-14T08:13:14.472Z,25.62
2018-05-14T08:14:18.652Z,26.00
2018-05-14T08:15:23.095Z,25.99
2018-05-14T08:16:27.219Z,25.71
2018-05-14T08:17:31.441Z,25.29
2018-05-14T08:18:35.605Z,25.29
2018-05-14T08:19:39.774Z,25.19
2018-05-14T08:20:44.000Z,25.04
2018-05-14T08:21:48.168Z,24.95
2018-05-14T08:22:52.648Z,25.16
2018-05-14T08:23:56.824Z,25.68
2018-05-14T08:25:00.986Z,25.94
2018-05-14T08:26:05.241Z,26.42
2018-05-14T08:27:09.374Z,26.86
2018-05-14T08:28:13.585Z,26.69
2018-05-14T08:29:17.950Z,26.78
2018-05-14T08:30:22.141Z,27.07
2018-05-14T08:31:26.262Z,27.26
2018-05-14T08:32:30.484Z,27.54
2018-05-14T08:33:34.704Z,27.43
2018-05-14T08:34:39.199Z,27.39
2018-05-14T08:35:43.341Z,27.39
2018-05-14T08:36:47.571Z,27.51
2018-05-14T08:37:51.714Z,27.67
2018-05-14T08:38:55.844Z,27.66
2018-05-14T08:40:00.099Z,27.58
2018-05-14T08:41:04.551Z,27.86
2018-05-14T08:42:08.685Z,27.80
2018-05-14T08:43:12.911Z,27.84
2018-05-14T08:44:17.036Z,27.40
2018-05-14T08:45:21.238Z,26.99
2018-05-14T08:46:25.842Z,27.04
2018-05-14T08:47:30.441Z,27.52
2018-05-14T08:48:34.545Z,27.63
2018-05-14T08:49:38.933Z,27.56
2018-05-14T08:50:42.967Z,27.44
2018-05-14T08:51:48.027Z,27.53
2018-05-14T08:52:52.814Z,27.93
2018-05-14T08:53:56.960Z,28.34
2018-05-14T08:55:01.105Z,28.52
2018-05-14T08:56:05.333Z,28.79
2018-05-14T08:57:09.785Z,28.90
2018-05-14T08:58:13.914Z,28.92
2018-05-14T08:59:18.036Z,28.80
2018-05-14T09:00:22.230Z,28.51
2018-05-14T09:01:26.447Z,28.16
2018-05-14T09:02:30.686Z,27.91
2018-05-14T09:03:35.143Z,27.92
2018-05-14T09:04:39.270Z,27.85
2018-05-14T09:05:43.426Z,27.57
2018-05-14T09:06:47.646Z,27.57
2018-05-14T09:07:51.813Z,27.70
2018-05-14T09:08:56.021Z,27.74
2018-05-14T09:10:00.477Z,27.82
2018-05-14T09:11:04.680Z,27.97
2018-05-14T09:12:08.818Z,28.03
2018-05-14T09:13:12.969Z,28.20
2018-05-14T09:14:17.128Z,28.20
2018-05-14T09:15:21.367Z,27.81
2018-05-14T09:16:25.802Z,27.99
2018-05-14T09:17:29.935Z,27.95
2018-05-14T09:18:34.089Z,27.83
2018-05-14T09:19:38.252Z,27.78
2018-05-14T09:20:42.498Z,28.05
2018-05-14T09:21:46.759Z,28.19
2018-05-14T09:22:50.889Z,28.20
2018-05-14T09:23:55.024Z,28.53
2018-05-14T09:24:59.189Z,28.68
2018-05-14T09:26:03.374Z,28.73
2018-05-14T09:27:07.818Z,28.88
2018-05-14T09:28:11.930Z,28.80
2018-05-14T09:29:16.136Z,28.80
2018-05-14T09:30:20.444Z,28.87
2018-05-14T09:31:25.014Z,28.97
2018-05-14T09:32:29.568Z,29.23
2018-05-14T09:33:35.715Z,29.62
2018-05-14T09:34:40.084Z,29.72
2018-05-14T09:35:44.368Z,29.46
2018-05-14T09:36:48.747Z,29.61
2018-05-14T09:37:53.964Z,29.60
2018-05-14T09:38:59.002Z,29.62
2018-05-14T09:40:03.526Z,29.40
2018-05-14T09:41:07.742Z,29.46
2018-05-14T09:42:11.848Z,29.60
2018-05-14T09:43:16.071Z,29.60
2018-05-14T09:44:20.282Z,29.53
2018-05-14T09:45:24.604Z,29.50
2018-05-14T09:46:29.382Z,29.46
2018-05-14T09:47:33.533Z,29.45
2018-05-14T09:48:37.766Z,29.42
2018-05-14T09:49:41.957Z,29.56
2018-05-14T09:50:46.060Z,29.78
2018-05-14T09:51:50.734Z,29.69
2018-05-14T09:52:54.860Z,29.67
2018-05-14T09:53:59.121Z,29.55
2018-05-14T09:55:03.316Z,29.71
2018-05-14T09:56:07.439Z,29.96
2018-05-14T09:57:11.802Z,30.15
2018-05-14T09:58:15.918Z,30.58
2018-05-14T09:59:20.422Z,30.50
2018-05-14T10:00:24.907Z,30.48
2018-05-14T10:01:29.010Z,30.46
2018-05-14T10:02:33.122Z,30.55
2018-05-14T10:03:37.336Z,30.64
2018-05-14T10:04:41.558Z,30.39
2018-05-14T10:05:46.005Z,30.28
2018-05-14T10:06:50.269Z,30.21
2018-05-14T10:07:55.401Z,30.34
2018-05-14T10:08:59.540Z,30.22
2018-05-14T10:10:03.798Z,30.29
2018-05-14T10:11:07.952Z,30.74
2018-05-14T10:12:12.468Z,30.70
2018-05-14T10:13:16.649Z,30.99
2018-05-14T10:14:20.783Z,31.28
2018-05-14T10:15:25.266Z,31.37
2018-05-14T10:16:29.524Z,31.05
2018-05-14T10:17:34.050Z,31.16
2018-05-14T10:18:38.847Z,31.31
2018-05-14T10:19:43.166Z,31.12
2018-05-14T10:20:47.564Z,31.09
2018-05-14T10:21:52.271Z,31.18
2018-05-14T10:22:57.524Z,30.93
2018-05-14T10:24:01.804Z,30.93
2018-05-14T10:25:06.264Z,30.95
2018-05-14T10:26:10.400Z,31.14
2018-05-14T10:27:14.542Z,31.58
2018-05-14T10:28:18.669Z,31.65
2018-05-14T10:29:22.858Z,31.99
2018-05-14T10:30:27.266Z,32.19
2018-05-14T10:31:31.730Z,32.29
2018-05-14T10:32:35.856Z,32.10
2018-05-14T10:33:40.116Z,32.05
2018-05-14T10:34:44.348Z,32.44
2018-05-14T10:35:48.497Z,32.59
2018-05-14T10:36:52.647Z,32.43
2018-05-14T10:37:56.803Z,32.25
2018-05-14T10:39:00.916Z,32.11
2018-05-14T10:40:05.684Z,32.09
2018-05-14T10:41:09.898Z,31.98
2018-05-14T10:42:14.016Z,32.06
2018-05-14T10:43:18.448Z,31.95
2018-05-14T10:44:22.652Z,31.85
2018-05-14T10:45:27.372Z,32.09
2018-05-14T10:46:31.604Z,32.09
2018-05-14T10:47:49.704Z,32.07
2018-05-14T10:48:55.846Z,32.13
2018-05-14T10:50:01.042Z,32.26
2018-05-14T10:51:05.926Z,32.42
2018-05-14T10:52:10.092Z,32.65
2018-05-14T10:53:14.209Z,32.72
2018-05-14T10:54:19.221Z,33.18
2018-05-14T10:55:23.994Z,33.36
2018-05-14T10:56:28.146Z,33.04
2018-05-14T10:57:32.443Z,32.59
2018-05-14T10:58:36.713Z,32.73
2018-05-14T10:59:40.838Z,32.54
2018-05-14T11:00:45.133Z,32.48
2018-05-14T11:01:49.592Z,32.62
2018-05-14T11:02:53.811Z,32.69
2018-05-14T11:03:58.637Z,32.26
2018-05-14T11:05:04.421Z,32.33
2018-05-14T11:06:08.646Z,32.37
2018-05-14T11:07:13.461Z,32.83
2018-05-14T11:08:17.696Z,33.35
2018-05-14T11:09:21.881Z,33.68
2018-05-14T11:10:26.046Z,33.56
2018-05-14T11:11:30.215Z,33.45
2018-05-14T11:12:34.416Z,33.47
2018-05-14T11:13:38.578Z,33.57
2018-05-14T11:14:43.064Z,33.56
2018-05-14T11:15:47.526Z,33.57
2018-05-14T11:16:52.181Z,33.18
2018-05-14T11:17:57.444Z,32.78
2018-05-14T11:19:02.014Z,32.95
2018-05-14T11:20:06.161Z,33.15
2018-05-14T11:21:10.612Z,32.85
2018-05-14T11:22:14.872Z,33.02
2018-05-14T11:23:19.102Z,32.84
2018-05-14T11:24:23.242Z,32.96
2018-05-14T11:25:27.508Z,33.43
2018-05-14T11:26:31.643Z,34.06
2018-05-14T11:27:36.177Z,34.41
2018-05-14T11:28:40.317Z,34.09
2018-05-14T11:29:44.601Z,33.57
2018-05-14T11:30:48.972Z,32.90
2018-05-14T11:31:53.514Z,32.56
2018-05-14T11:32:57.718Z,33.05
2018-05-14T11:34:02.880Z,33.13
2018-05-14T11:35:07.686Z,33.18
2018-05-14T11:36:11.884Z,33.43
2018-05-14T11:37:16.008Z,33.63
2018-05-14T11:38:20.198Z,34.11
2018-05-14T11:39:24.411Z,33.90
2018-05-14T11:40:28.581Z,33.60
2018-05-14T11:41:32.795Z,33.46
2018-05-14T11:42:36.940Z,33.25
2018-05-14T11:43:41.512Z,32.48
2018-05-14T11:44:45.707Z,32.81
2018-05-14T11:45:49.868Z,33.31
2018-05-14T11:46:54.012Z,33.53
2018-05-14T11:47:58.146Z,33.64
2018-05-14T11:49:03.149Z,33.96
2018-05-14T11:50:07.650Z,34.07
2018-05-14T11:51:11.874Z,34.72
2018-05-14T11:53:16.442Z,34.24
2018-05-14T11:54:21.319Z,34.01
2018-05-14T11:55:26.440Z,33.56
2018-05-14T11:56:31.003Z,34.01
2018-05-14T11:57:35.193Z,34.17
2018-05-14T11:58:39.317Z,34.57
2018-05-14T11:59:43.563Z,34.26
2018-05-14T12:00:47.893Z,33.41
2018-05-14T12:01:52.166Z,34.07
2018-05-14T12:02:56.574Z,34.74
2018-05-14T12:04:01.257Z,35.14
2018-05-14T12:05:05.380Z,35.29
2018-05-14T12:06:09.527Z,35.69
2018-05-14T12:07:13.763Z,36.24
2018-05-14T12:08:17.905Z,35.97
2018-05-14T12:09:22.350Z,35.88
2018-05-14T12:10:26.494Z,36.22
2018-05-14T12:11:30.730Z,35.82
2018-05-14T12:12:34.892Z,35.36
2018-05-14T12:13:39.008Z,35.85
2018-05-14T12:14:43.221Z,36.13
2018-05-14T12:15:47.921Z,36.17
2018-05-14T12:16:52.184Z,36.72
2018-05-14T12:17:56.777Z,36.87
2018-05-14T12:19:00.942Z,37.21
2018-05-14T12:20:05.102Z,37.04
2018-05-14T12:21:09.363Z,37.11
2018-05-14T12:22:13.917Z,37.34
2018-05-14T12:23:18.079Z,37.76
2018-05-14T12:24:22.339Z,37.60
2018-05-14T12:25:26.473Z,36.54
2018-05-14T12:26:30.644Z,36.13
2018-05-14T12:27:34.870Z,36.18
2018-05-14T12:28:39.007Z,36.28
2018-05-14T12:29:43.176Z,36.00
2018-05-14T12:30:47.613Z,35.64
2018-05-14T12:31:52.121Z,35.33
2018-05-14T12:32:56.348Z,35.67
2018-05-14T12:34:01.640Z,35.69
2018-05-14T12:35:06.134Z,36.18
2018-05-14T12:36:10.246Z,36.39
2018-05-14T12:37:14.416Z,37.13
2018-05-14T12:38:18.633Z,37.56
2018-05-14T12:39:22.805Z,38.71
2018-05-14T12:40:27.283Z,39.23
2018-05-14T12:41:31.543Z,39.77
2018-05-14T12:42:35.781Z,38.84
2018-05-14T12:43:39.965Z,38.01
2018-05-14T12:44:44.250Z,37.44
2018-05-14T12:45:48.734Z,38.08
2018-05-14T12:46:53.542Z,37.84
2018-05-14T12:47:57.899Z,37.64
2018-05-14T12:49:02.881Z,37.43
2018-05-14T12:50:07.059Z,37.21
2018-05-14T12:51:11.267Z,37.52
2018-05-14T12:52:15.433Z,37.60
2018-05-14T12:53:19.587Z,37.92
2018-05-14T12:54:23.876Z,37.46
2018-05-14T12:55:27.981Z,37.15
2018-05-14T12:56:32.231Z,37.15
2018-05-14T12:57:36.413Z,37.48
2018-05-14T12:58:40.636Z,37.61
2018-05-14T12:59:45.090Z,37.47
2018-05-14T13:00:49.569Z,37.31
2018-05-14T13:01:55.090Z,37.59
2018-05-14T13:03:00.339Z,37.87
2018-05-14T13:04:04.509Z,38.26
2018-05-14T13:05:08.645Z,39.32
2018-05-14T13:06:13.292Z,40.27
2018-05-14T13:07:17.466Z,39.29
2018-05-14T13:08:21.674Z,38.97
2018-05-14T13:09:25.955Z,38.50
2018-05-14T13:10:30.119Z,38.08
2018-05-14T13:11:34.266Z,37.75
2018-05-14T13:12:38.801Z,37.76
2018-05-14T13:13:42.977Z,37.70
2018-05-14T13:14:47.223Z,37.31
2018-05-14T13:15:51.648Z,37.67
2018-05-14T13:16:55.784Z,38.02
2018-05-14T13:17:59.943Z,39.20
2018-05-14T13:19:05.132Z,38.90
2018-05-14T13:20:09.414Z,39.31
2018-05-14T13:21:13.623Z,39.61
2018-05-14T13:22:17.762Z,39.68
2018-05-14T13:23:21.992Z,40.00
2018-05-14T13:24:26.122Z,39.56
2018-05-14T13:25:30.431Z,39.86
2018-05-14T13:26:34.603Z,40.27
2018-05-14T13:27:38.824Z,39.79
2018-05-14T13:28:43.003Z,39.32
2018-05-14T13:29:47.219Z,38.61
2018-05-14T13:30:52.030Z,37.59
2018-05-14T13:31:56.400Z,37.87
2018-05-14T13:33:00.500Z,37.29
2018-05-14T13:34:05.142Z,37.68
2018-05-14T13:35:09.362Z,37.40
2018-05-14T13:36:13.529Z,37.96
2018-05-14T13:37:18.119Z,38.50
2018-05-14T13:38:22.267Z,39.49
2018-05-14T13:39:26.434Z,40.48
2018-05-14T13:40:30.584Z,40.94
2018-05-14T13:41:34.931Z,41.53
2018-05-14T13:42:39.246Z,42.53
2018-05-14T13:43:43.480Z,42.33
2018-05-14T13:44:47.723Z,40.22
2018-05-14T13:45:52.116Z,39.93
2018-05-14T13:46:56.768Z,40.82
2018-05-14T13:48:00.966Z,39.90
2018-05-14T13:49:05.205Z,39.79
2018-05-14T13:50:09.712Z,39.59
2018-05-14T13:51:13.855Z,39.70
2018-05-14T13:52:18.012Z,40.13
2018-05-14T13:53:22.122Z,39.63
2018-05-14T13:54:26.370Z,39.65